Terminal Aerodrome Forecast
Issued by NWS

Home | Current Version | Previous Version | Text Only | Print | Product List | Glossary On
Versions: 1 2 3 4 5 6 7 8 9 10 11 12 13 14
000
FTPA31 PHFO 222332
TAFHMK
TAF
PHMK 222332Z 2300/2324 VRB06KT P6SM -SHRA SCT015 BKN035 OVC150
     FM232000 07011G19KT P6SM FEW015 SCT025 BKN180=

USA.gov is the U.S. government's official web portal to all federal, state and local government web resources and services.